Time;durP1;ratioP1;P1;durP2;ratioP2;P2;SDS_P1;SDS_P2;PMS_P1;PMS_P2;Temp;Humidity;BMP_temperature;BMP_pressure;BME280_temperature;BME280_humidity;BME280_pressure;Samples;Min_cycle;Max_cycle;Signal;HPM_P1;HPM_P2
2021/04/06 00:02:08;;;;;;;2.15;1.73;;;11.60;55.60;;;;;;5032681;28;20038;-69
2021/04/06 00:04:38;;;;;;;7.25;2.63;;;11.60;56.40;;;;;;5033096;28;20088;-73
2021/04/06 00:07:06;;;;;;;4.40;2.20;;;11.70;55.10;;;;;;5032890;28;20096;-73
2021/04/06 00:09:34;;;;;;;4.53;2.05;;;11.60;54.80;;;;;;5032871;28;20496;-72
2021/04/06 00:12:04;;;;;;;3.80;2.28;;;11.60;54.90;;;;;;5032694;28;20037;-73
2021/04/06 00:14:31;;;;;;;5.85;2.50;;;11.60;54.90;;;;;;5032678;28;20021;-72
2021/04/06 00:16:59;;;;;;;7.07;2.28;;;11.60;54.90;;;;;;5032487;28;20048;-72
2021/04/06 00:19:26;;;;;;;3.97;1.98;;;11.60;54.80;;;;;;5032627;28;20029;-73
2021/04/06 00:21:55;;;;;;;5.72;2.38;;;11.60;54.80;;;;;;5033138;28;20105;-73
2021/04/06 00:24:25;;;;;;;5.93;2.15;;;11.60;54.70;;;;;;5032476;28;20030;-72
2021/04/06 00:27:01;;;;;;;3.85;2.03;;;11.50;54.90;;;;;;5032946;28;20030;-72
2021/04/06 00:29:33;;;;;;;5.22;2.08;;;11.60;55.50;;;;;;5035598;28;20461;-69
2021/04/06 00:32:00;;;;;;;5.22;2.40;;;11.60;56.20;;;;;;5036416;28;20052;-73
2021/04/06 00:34:27;;;;;;;5.95;2.10;;;11.50;55.60;;;;;;5036701;28;20508;-70
2021/04/06 00:36:55;;;;;;;7.22;2.72;;;11.60;55.20;;;;;;5036716;28;20028;-65
2021/04/06 00:39:32;;;;;;;4.97;2.40;;;11.60;55.40;;;;;;5036365;28;20017;-65
2021/04/06 00:42:08;;;;;;;4.70;2.03;;;11.60;55.30;;;;;;5036383;28;20484;-65
2021/04/06 00:44:40;;;;;;;4.80;2.42;;;11.50;56.00;;;;;;5036111;28;20032;-65
2021/04/06 00:47:07;;;;;;;4.00;2.22;;;11.50;55.80;;;;;;5036254;28;20497;-64
2021/04/06 00:49:35;;;;;;;2.83;1.98;;;11.50;55.70;;;;;;5036051;28;20120;-65
2021/04/06 00:52:04;;;;;;;3.83;1.90;;;11.50;56.10;;;;;;5036325;28;20069;-65
2021/04/06 00:54:33;;;;;;;6.95;2.03;;;11.50;56.00;;;;;;5036117;28;20033;-65
2021/04/06 00:56:59;;;;;;;8.07;2.47;;;11.50;57.10;;;;;;5036037;28;20033;-65
2021/04/06 00:59:25;;;;;;;6.35;2.13;;;11.50;57.50;;;;;;5033532;28;20473;-65
2021/04/06 01:01:59;;;;;;;3.50;1.92;;;11.50;57.50;;;;;;5033071;28;20033;-65
2021/04/06 01:04:32;;;;;;;3.15;2.05;;;11.50;57.40;;;;;;5033983;28;20032;-66
2021/04/06 01:07:06;;;;;;;7.70;2.15;;;11.50;57.70;;;;;;5035518;28;20032;-64
2021/04/06 01:09:40;;;;;;;3.38;2.00;;;11.50;57.10;;;;;;5036033;28;20028;-66
2021/04/06 01:12:07;;;;;;;6.75;2.50;;;11.40;57.80;;;;;;5036032;28;20485;-65
2021/04/06 01:14:35;;;;;;;4.18;2.10;;;11.50;57.20;;;;;;5035480;28;20045;-65
2021/04/06 01:17:02;;;;;;;2.63;2.00;;;11.50;57.50;;;;;;5035528;28;20025;-65
2021/04/06 01:19:29;;;;;;;6.38;2.60;;;11.50;57.90;;;;;;5035140;28;20148;-65
2021/04/06 01:21:57;;;;;;;5.10;1.98;;;11.50;56.90;;;;;;5035124;28;20022;-64
2021/04/06 01:24:30;;;;;;;3.85;1.80;;;11.50;56.80;;;;;;5035346;28;20529;-65
2021/04/06 01:26:58;;;;;;;6.68;2.00;;;11.40;57.00;;;;;;5035592;28;20481;-65
2021/04/06 01:29:25;;;;;;;4.30;2.58;;;11.50;57.00;;;;;;5035055;28;20030;-65
2021/04/06 01:31:55;;;;;;;5.35;2.53;;;11.50;57.10;;;;;;5035377;28;20038;-65
2021/04/06 01:34:21;;;;;;;4.53;2.35;;;11.50;57.50;;;;;;5035201;28;20018;-65
2021/04/06 01:36:47;;;;;;;4.95;2.25;;;11.40;57.20;;;;;;5034672;28;20026;-65
2021/04/06 01:39:15;;;;;;;4.95;2.53;;;11.40;57.10;;;;;;5034144;28;20029;-65
2021/04/06 01:41:45;;;;;;;7.82;2.33;;;11.50;57.10;;;;;;5034349;28;20017;-65
2021/04/06 01:44:11;;;;;;;5.43;2.60;;;11.40;57.20;;;;;;5034345;28;20026;-65
2021/04/06 01:46:41;;;;;;;4.40;2.50;;;11.40;57.40;;;;;;5035218;28;20032;-63
2021/04/06 01:49:08;;;;;;;7.22;2.40;;;11.40;58.10;;;;;;5034759;28;20061;-66
2021/04/06 01:51:34;;;;;;;4.50;2.33;;;11.40;57.90;;;;;;5034743;28;20087;-65
2021/04/06 01:54:04;;;;;;;5.28;2.40;;;11.40;58.10;;;;;;5034974;28;20033;-65
2021/04/06 01:56:32;;;;;;;4.03;2.25;;;11.40;58.40;;;;;;5034927;28;20541;-64
2021/04/06 01:59:03;;;;;;;5.00;2.40;;;11.40;58.40;;;;;;5034596;28;20505;-65
2021/04/06 02:01:29;;;;;;;4.80;2.40;;;11.40;58.80;;;;;;5034748;28;20032;-65
2021/04/06 02:04:05;;;;;;;5.75;2.20;;;11.40;59.10;;;;;;5034734;28;20466;-65
2021/04/06 02:06:36;;;;;;;2.97;2.40;;;11.40;59.20;;;;;;5032778;28;20024;-65
2021/04/06 02:09:07;;;;;;;5.07;2.67;;;11.30;59.80;;;;;;5034129;28;20155;-65
2021/04/06 02:11:36;;;;;;;3.40;2.20;;;11.40;60.30;;;;;;5034852;28;20414;-67
2021/04/06 02:14:10;;;;;;;4.93;2.55;;;11.40;60.30;;;;;;5034684;28;20026;-65
2021/04/06 02:16:56;;;;;;;5.82;2.55;;;11.30;60.10;;;;;;5034668;28;20037;-73
2021/04/06 02:19:26;;;;;;;4.22;2.30;;;11.30;60.00;;;;;;5034762;28;20053;-69
2021/04/06 02:22:09;;;;;;;6.38;2.50;;;11.30;59.90;;;;;;5034638;28;20053;-64
2021/04/06 02:24:45;;;;;;;8.20;2.50;;;11.40;59.90;;;;;;5034210;28;20025;-65
2021/04/06 02:27:19;;;;;;;3.47;2.40;;;11.40;59.80;;;;;;5034354;28;20032;-72
2021/04/06 02:29:50;;;;;;;2.90;2.27;;;11.40;60.00;;;;;;5034368;28;20027;-72
2021/04/06 02:32:22;;;;;;;4.68;2.28;;;11.30;59.80;;;;;;5034141;28;20497;-72
2021/04/06 02:34:51;;;;;;;6.43;2.55;;;11.30;58.90;;;;;;5034111;28;20470;-72
2021/04/06 02:37:23;;;;;;;3.55;2.28;;;11.30;58.40;;;;;;5034198;28;20057;-72
2021/04/06 02:39:51;;;;;;;3.58;2.28;;;11.30;58.00;;;;;;5034098;28;20031;-72
2021/04/06 02:42:19;;;;;;;3.25;2.15;;;11.30;58.70;;;;;;5034153;28;20478;-69
2021/04/06 02:44:45;;;;;;;5.22;2.20;;;11.20;58.90;;;;;;5034026;28;20053;-73
2021/04/06 02:47:11;;;;;;;7.70;2.58;;;11.30;59.20;;;;;;5034040;28;20061;-72
2021/04/06 02:49:37;;;;;;;5.18;2.20;;;11.30;58.80;;;;;;5033579;28;20056;-65
2021/04/06 02:52:03;;;;;;;4.20;2.30;;;11.30;58.60;;;;;;5033526;28;20041;-65
2021/04/06 02:54:29;;;;;;;6.82;2.55;;;11.30;58.60;;;;;;5034127;28;20033;-66
2021/04/06 02:56:55;;;;;;;5.45;2.30;;;11.30;59.10;;;;;;5033624;28;20561;-65
2021/04/06 02:59:21;;;;;;;10.27;2.35;;;11.30;58.80;;;;;;5033815;28;20124;-72
2021/04/06 03:01:50;;;;;;;3.92;2.13;;;11.30;59.40;;;;;;5032363;28;20029;-73
2021/04/06 03:04:22;;;;;;;4.43;2.05;;;11.20;59.30;;;;;;5033672;28;20478;-72
2021/04/06 03:06:53;;;;;;;5.20;2.05;;;11.20;58.80;;;;;;5032070;28;20029;-73
2021/04/06 03:09:22;;;;;;;3.08;2.13;;;11.20;58.80;;;;;;5033849;28;20079;-65
2021/04/06 03:11:52;;;;;;;6.47;2.28;;;11.20;58.70;;;;;;5033693;28;20486;-65
2021/04/06 03:14:23;;;;;;;5.72;2.22;;;11.20;59.20;;;;;;5033709;28;20041;-66
2021/04/06 03:16:51;;;;;;;4.55;2.45;;;11.20;59.20;;;;;;5033591;28;20104;-65
2021/04/06 03:19:27;;;;;;;3.95;2.40;;;11.20;57.90;;;;;;5033075;28;20022;-65
2021/04/06 03:21:53;;;;;;;6.22;2.63;;;11.20;57.90;;;;;;5033839;28;20028;-64
2021/04/06 03:24:20;;;;;;;4.60;2.45;;;11.20;58.80;;;;;;5033746;28;20029;-64
2021/04/06 03:26:48;;;;;;;5.07;2.35;;;11.20;58.30;;;;;;5033483;28;20096;-65
2021/04/06 03:29:16;;;;;;;5.97;2.53;;;11.20;58.10;;;;;;5033529;28;20482;-65
2021/04/06 03:31:42;;;;;;;3.60;2.40;;;11.20;58.40;;;;;;5033293;28;20040;-65
2021/04/06 03:34:10;;;;;;;4.78;2.28;;;11.20;58.50;;;;;;5033307;28;20033;-64
2021/04/06 03:36:36;;;;;;;5.47;2.40;;;11.10;58.20;;;;;;5033416;28;20025;-65
2021/04/06 03:39:08;;;;;;;4.90;2.08;;;11.20;59.00;;;;;;5033163;28;20033;-65
2021/04/06 03:41:34;;;;;;;;;;;11.20;59.10;;;;;;5033611;28;20076;-65
2021/04/06 03:44:11;;;;;;;4.30;2.30;;;11.10;59.00;;;;;;5033365;28;19928;-65
2021/04/06 03:46:39;;;;;;;3.70;2.15;;;11.20;59.20;;;;;;5033255;28;20036;-65
2021/04/06 03:49:18;;;;;;;6.77;2.33;;;11.10;59.30;;;;;;5033090;28;20056;-65
2021/04/06 03:51:51;;;;;;;4.45;2.30;;;11.10;59.10;;;;;;5033227;28;20034;-65
2021/04/06 03:54:34;;;;;;;6.65;2.50;;;11.10;59.00;;;;;;5032972;28;20018;-64
2021/04/06 03:57:01;;;;;;;5.32;2.30;;;11.10;59.20;;;;;;5033172;28;20026;-65
2021/04/06 03:59:31;;;;;;;4.18;2.08;;;11.10;59.40;;;;;;5032963;28;20143;-65
2021/04/06 04:01:57;;;;;;;5.73;2.60;;;11.10;59.80;;;;;;5033176;28;20083;-66
2021/04/06 04:04:23;;;;;;;5.50;2.00;;;11.10;59.70;;;;;;5036098;28;20474;-65
2021/04/06 04:06:49;;;;;;;5.75;1.90;;;11.10;60.50;;;;;;5037024;28;20036;-65
2021/04/06 04:09:14;;;;;;;4.35;2.10;;;11.10;60.10;;;;;;5037193;28;20025;-64
2021/04/06 04:11:41;;;;;;;5.68;2.30;;;11.10;60.70;;;;;;5035901;28;20073;-62
2021/04/06 04:14:07;;;;;;;4.22;1.83;;;11.10;60.70;;;;;;5037267;28;20034;-62
2021/04/06 04:16:38;;;;;;;3.90;2.42;;;11.10;60.90;;;;;;5036855;28;20021;-64
2021/04/06 04:19:04;;;;;;;9.50;2.75;;;11.10;60.60;;;;;;5035482;28;20025;-64
2021/04/06 04:21:30;;;;;;;7.82;2.33;;;11.20;60.60;;;;;;5037181;28;20029;-65
2021/04/06 04:23:56;;;;;;;5.05;2.25;;;11.20;60.30;;;;;;5036863;28;20025;-65
2021/04/06 04:26:21;;;;;;;5.28;2.17;;;11.20;60.20;;;;;;5036882;28;20044;-64
2021/04/06 04:28:47;;;;;;;4.75;1.85;;;11.20;60.10;;;;;;5036650;28;20037;-63
2021/04/06 04:31:14;;;;;;;5.47;2.08;;;11.20;59.70;;;;;;5036550;28;20033;-66
2021/04/06 04:33:40;;;;;;;3.88;2.00;;;11.20;59.30;;;;;;5036537;28;20485;-65
2021/04/06 04:36:06;;;;;;;5.97;2.42;;;11.20;59.50;;;;;;5035626;28;20083;-65
2021/04/06 04:38:32;;;;;;;7.32;2.13;;;11.20;60.00;;;;;;5036832;28;20024;-65
2021/04/06 04:40:57;;;;;;;4.05;1.92;;;11.20;59.60;;;;;;5036524;28;20056;-65
2021/04/06 04:43:23;;;;;;;8.93;2.30;;;11.20;59.60;;;;;;5036608;28;20024;-65
2021/04/06 04:45:49;;;;;;;6.70;2.38;;;11.20;60.10;;;;;;5036260;28;20082;-66
2021/04/06 04:48:14;;;;;;;8.65;2.53;;;11.20;61.00;;;;;;5036421;28;20026;-72
2021/04/06 04:50:40;;;;;;;3.78;2.20;;;11.20;60.10;;;;;;5036438;28;20402;-72
2021/04/06 04:53:06;;;;;;;8.88;2.30;;;11.20;60.70;;;;;;5035123;28;20116;-73
2021/04/06 04:55:31;;;;;;;3.33;2.17;;;11.20;61.90;;;;;;5036353;28;20033;-72
2021/04/06 04:57:57;;;;;;;5.72;2.80;;;11.20;63.90;;;;;;5036367;28;20026;-73
2021/04/06 05:00:23;;;;;;;5.50;2.63;;;11.20;63.30;;;;;;5035995;28;20014;-72
2021/04/06 05:02:49;;;;;;;5.03;2.37;;;11.10;63.50;;;;;;5036508;28;20018;-72
2021/04/06 05:05:17;;;;;;;8.20;3.10;;;11.10;64.90;;;;;;5036056;28;20365;-73
2021/04/06 05:07:44;;;;;;;5.90;2.95;;;11.10;65.80;;;;;;5036120;28;20048;-73
2021/04/06 05:10:13;;;;;;;6.05;3.00;;;11.10;68.10;;;;;;5036146;28;20549;-73
2021/04/06 05:12:39;;;;;;;6.80;3.20;;;11.10;69.20;;;;;;5035894;28;20506;-73
2021/04/06 05:15:06;;;;;;;8.23;3.37;;;11.10;70.00;;;;;;5035568;28;20088;-67
2021/04/06 05:17:32;;;;;;;4.63;2.92;;;11.00;71.00;;;;;;5035797;28;20076;-72
2021/04/06 05:19:58;;;;;;;8.32;3.40;;;11.00;70.80;;;;;;5035823;28;20486;-72
2021/04/06 05:22:24;;;;;;;8.33;3.60;;;10.90;69.60;;;;;;5035767;28;20033;-72
2021/04/06 05:24:49;;;;;;;8.77;3.58;;;10.90;69.90;;;;;;5035637;28;20425;-72
2021/04/06 05:27:15;;;;;;;11.77;3.50;;;10.90;70.80;;;;;;5035964;28;20079;-72
2021/04/06 05:29:41;;;;;;;6.65;3.70;;;10.90;70.80;;;;;;5035752;28;20512;-72
2021/04/06 05:32:07;;;;;;;8.55;3.35;;;10.90;72.40;;;;;;5035516;28;20078;-72
2021/04/06 05:34:32;;;;;;;7.47;3.15;;;10.80;72.90;;;;;;5035585;28;20028;-72
2021/04/06 05:36:58;;;;;;;8.40;3.47;;;10.70;73.70;;;;;;5035509;28;20525;-72
2021/04/06 05:39:24;;;;;;;6.33;3.30;;;10.70;73.90;;;;;;5035637;28;20512;-72
2021/04/06 05:41:50;;;;;;;5.18;3.15;;;10.70;74.80;;;;;;5035386;28;20021;-72
2021/04/06 05:44:17;;;;;;;5.37;3.40;;;10.60;75.00;;;;;;5035398;28;20099;-72
2021/04/06 05:46:46;;;;;;;9.00;3.60;;;10.60;74.60;;;;;;5035368;28;20028;-72
2021/04/06 05:49:15;;;;;;;5.20;3.50;;;10.60;74.10;;;;;;5035125;28;20060;-72
2021/04/06 05:51:42;;;;;;;5.37;3.60;;;10.60;75.10;;;;;;5035311;28;20044;-72
2021/04/06 05:54:11;;;;;;;8.13;3.90;;;10.60;74.60;;;;;;5035176;28;20033;-72
2021/04/06 05:56:37;;;;;;;8.93;3.70;;;10.60;75.70;;;;;;5035335;28;20029;-73
2021/04/06 05:59:07;;;;;;;9.67;4.13;;;10.60;76.00;;;;;;5035043;28;20390;-71
2021/04/06 06:01:41;;;;;;;7.40;3.53;;;10.60;76.00;;;;;;5035343;28;20030;-66
2021/04/06 06:04:09;;;;;;;10.05;4.15;;;10.50;75.70;;;;;;5035134;28;20026;-68
2021/04/06 06:06:35;;;;;;;6.45;3.80;;;10.60;76.40;;;;;;5035197;28;20032;-70
2021/04/06 06:09:03;;;;;;;5.97;3.87;;;10.60;76.20;;;;;;5035052;28;20105;-65
2021/04/06 06:11:28;;;;;;;13.57;5.10;;;10.60;76.20;;;;;;5035211;28;20033;-66
2021/04/06 06:13:54;;;;;;;11.77;4.43;;;10.60;76.20;;;;;;5035112;28;20029;-67
2021/04/06 06:16:22;;;;;;;8.87;4.30;;;10.60;75.60;;;;;;5034999;28;20029;-71
2021/04/06 06:18:56;;;;;;;10.43;2.80;;;10.50;76.00;;;;;;5034554;28;20025;-71
2021/04/06 06:21:23;;;;;;;7.50;2.37;;;10.50;75.40;;;;;;5032061;28;20382;-69
2021/04/06 06:23:50;;;;;;;3.93;2.33;;;10.40;74.30;;;;;;5031957;28;20057;-74
2021/04/06 06:26:18;;;;;;;2.13;1.00;;;10.50;73.00;;;;;;5032262;28;20029;-73
2021/04/06 06:29:11;;;;;;;3.77;0.93;;;10.40;70.70;;;;;;5034260;28;20053;-71
2021/04/06 06:31:45;;;;;;;1.20;0.60;;;10.20;69.20;;;;;;5034277;28;20627;-72
2021/04/06 06:34:32;;;;;;;2.30;0.53;;;10.10;70.80;;;;;;5023649;28;20093;-71
2021/04/06 06:37:17;;;;;;;1.60;0.40;;;10.00;70.80;;;;;;5019470;28;20494;-73
2021/04/06 06:39:52;;;;;;;2.40;0.60;;;9.80;71.00;;;;;;5033999;28;20028;-75
2021/04/06 06:42:21;;;;;;;1.20;0.50;;;9.70;72.00;;;;;;5033949;28;20021;-71
2021/04/06 06:44:48;;;;;;;0.60;0.23;;;9.50;71.80;;;;;;5029648;28;20375;-77
2021/04/06 06:47:22;;;;;;;6.73;1.03;;;9.40;70.20;;;;;;5014394;28;20097;-73
2021/04/06 06:49:52;;;;;;;1.90;0.70;;;9.30;71.00;;;;;;5011483;28;20053;-74
2021/04/06 06:52:24;;;;;;;4.43;0.60;;;9.20;69.30;;;;;;5017648;28;20064;-74
2021/04/06 06:54:55;;;;;;;3.40;0.63;;;9.00;70.10;;;;;;5031933;28;20034;-77
2021/04/06 06:57:32;;;;;;;2.50;0.70;;;8.90;67.20;;;;;;5033812;28;20038;-75
2021/04/06 07:00:17;;;;;;;1.40;0.30;;;8.70;68.50;;;;;;5034036;28;20112;-77
2021/04/06 07:02:43;;;;;;;2.93;0.30;;;8.50;67.60;;;;;;5033564;28;20378;-77
2021/04/06 07:05:12;;;;;;;1.23;0.30;;;8.40;68.20;;;;;;5033459;28;20030;-74
2021/04/06 07:07:57;;;;;;;1.77;0.70;;;8.30;68.50;;;;;;5030381;28;20033;-75
2021/04/06 07:10:31;;;;;;;0.57;0.30;;;8.20;68.70;;;;;;5031972;28;20026;-79
2021/04/06 07:13:11;;;;;;;2.10;0.40;;;8.20;69.30;;;;;;5033210;28;20035;-76
2021/04/06 07:15:39;;;;;;;0.57;0.40;;;8.10;69.10;;;;;;5014090;28;20026;-73
2021/04/06 07:18:09;;;;;;;0.50;0.20;;;8.00;69.30;;;;;;4996257;28;20028;-73
2021/04/06 07:20:38;;;;;;;1.47;0.33;;;8.00;69.20;;;;;;5026364;28;20018;-73
2021/04/06 07:23:14;;;;;;;1.07;0.27;;;7.90;69.20;;;;;;5024424;28;20024;-71
2021/04/06 07:25:45;;;;;;;1.27;0.50;;;7.70;70.70;;;;;;5028974;28;20025;-72
2021/04/06 07:28:15;;;;;;;1.20;0.83;;;7.60;70.50;;;;;;5030926;28;20021;-72
2021/04/06 07:30:43;;;;;;;1.30;0.80;;;7.40;71.00;;;;;;5032798;28;20025;-72
2021/04/06 07:33:09;;;;;;;1.10;0.50;;;7.40;72.10;;;;;;5033112;28;20037;-69
2021/04/06 07:35:36;;;;;;;1.83;0.83;;;7.30;73.20;;;;;;5033013;28;20025;-70
2021/04/06 07:38:02;;;;;;;1.17;0.30;;;7.30;72.40;;;;;;5033048;28;20381;-70
2021/04/06 07:40:32;;;;;;;2.43;1.27;;;7.20;72.10;;;;;;5032766;28;20032;-71
2021/04/06 07:42:58;;;;;;;0.37;0.30;;;7.20;73.00;;;;;;5032812;28;20064;-72
2021/04/06 07:45:24;;;;;;;0.83;0.20;;;7.10;73.00;;;;;;5031588;28;20021;-71
2021/04/06 07:47:51;;;;;;;3.80;0.10;;;7.10;72.40;;;;;;5031007;28;20029;-71
2021/04/06 07:50:34;;;;;;;2.40;0.20;;;7.10;71.90;;;;;;5032483;28;20045;-71
2021/04/06 07:53:23;;;;;;;1.73;0.30;;;7.00;73.50;;;;;;5031788;28;20033;-72
2021/04/06 07:55:49;;;;;;;1.30;0.20;;;7.00;73.60;;;;;;5032281;28;20537;-71
2021/04/06 07:58:46;;;;;;;1.73;0.27;;;7.00;73.70;;;;;;5031593;28;20022;-71
2021/04/06 08:01:25;;;;;;;0.97;0.23;;;7.10;72.90;;;;;;5032764;28;20033;-71
2021/04/06 08:03:54;;;;;;;2.77;0.30;;;7.10;72.00;;;;;;5031288;28;20028;-73
2021/04/06 08:06:21;;;;;;;1.10;0.33;;;7.00;72.50;;;;;;5032716;28;20022;-72
2021/04/06 08:08:46;;;;;;;0.37;0.20;;;6.90;72.50;;;;;;5031573;28;20394;-72
2021/04/06 08:11:12;;;;;;;0.67;0.20;;;6.90;72.40;;;;;;5032405;28;20025;-72
2021/04/06 08:13:38;;;;;;;0.60;0.43;;;7.00;71.90;;;;;;5032674;28;20428;-71
2021/04/06 08:16:18;;;;;;;0.60;0.33;;;6.90;72.10;;;;;;5031534;28;20025;-73
2021/04/06 08:18:51;;;;;;;0.37;0.27;;;6.80;71.70;;;;;;5032393;28;20087;-72
2021/04/06 08:21:18;;;;;;;0.47;0.30;;;6.80;72.50;;;;;;5032616;28;20033;-71
2021/04/06 08:23:48;;;;;;;1.23;0.30;;;6.70;72.40;;;;;;5032456;28;20378;-71
2021/04/06 08:26:35;;;;;;;0.47;0.10;;;6.70;72.20;;;;;;5032273;28;20104;-71
2021/04/06 08:29:23;;;;;;;2.33;0.30;;;6.60;73.00;;;;;;5032631;28;20095;-75
2021/04/06 08:32:12;;;;;;;0.80;0.20;;;6.40;73.30;;;;;;5032599;28;20076;-69
2021/04/06 08:34:54;;;;;;;1.50;0.40;;;6.40;73.40;;;;;;5022428;28;20512;-76
2021/04/06 08:37:37;;;;;;;0.90;0.30;;;6.30;73.00;;;;;;5032875;28;20033;-76
2021/04/06 08:40:08;;;;;;;0.70;0.38;;;6.20;73.50;;;;;;5031457;28;20033;-74
2021/04/06 08:42:35;;;;;;;0.80;0.37;;;6.20;73.20;;;;;;5032985;28;20025;-75
2021/04/06 08:45:03;;;;;;;2.67;0.47;;;6.10;74.20;;;;;;5032689;28;20409;-76
2021/04/06 08:47:40;;;;;;;0.77;0.30;;;6.10;74.10;;;;;;5032378;28;20022;-75
2021/04/06 08:50:09;;;;;;;0.63;0.30;;;6.10;72.30;;;;;;5034641;28;20144;-76
2021/04/06 08:52:35;;;;;;;0.97;0.27;;;6.10;72.30;;;;;;5036235;28;20065;-73
2021/04/06 08:55:13;;;;;;;1.20;0.40;;;6.00;73.10;;;;;;5036450;28;20057;-71
2021/04/06 08:57:40;;;;;;;0.80;0.43;;;6.00;73.60;;;;;;5036253;28;20426;-73
2021/04/06 09:00:12;;;;;;;1.10;0.70;;;6.10;74.40;;;;;;5031346;28;20355;-75
2021/04/06 09:02:38;;;;;;;1.20;0.32;;;6.10;75.40;;;;;;5033242;28;20036;-75
2021/04/06 09:05:04;;;;;;;0.60;0.33;;;6.10;75.40;;;;;;5033148;28;20096;-76
2021/04/06 09:07:32;;;;;;;0.80;0.60;;;6.10;76.40;;;;;;5030686;28;20057;-73
2021/04/06 09:10:09;;;;;;;1.73;0.80;;;6.10;75.50;;;;;;5024787;28;20025;-75
2021/04/06 09:12:36;;;;;;;0.97;0.50;;;6.20;75.00;;;;;;5033884;28;20052;-72
2021/04/06 09:15:05;;;;;;;0.70;0.50;;;6.20;73.90;;;;;;5034950;28;20022;-73
2021/04/06 09:17:32;;;;;;;2.33;0.93;;;6.20;73.20;;;;;;5035502;28;20478;-76
2021/04/06 09:20:00;;;;;;;1.97;0.70;;;6.20;73.30;;;;;;5035353;28;20497;-72
2021/04/06 09:22:26;;;;;;;1.60;0.60;;;6.20;73.30;;;;;;5035668;28;20535;-76
2021/04/06 09:24:52;;;;;;;1.20;0.60;;;6.30;71.60;;;;;;5035558;28;20107;-75
2021/04/06 09:27:18;;;;;;;0.80;0.40;;;6.30;72.10;;;;;;5017365;28;20026;-76
2021/04/06 09:29:46;;;;;;;0.80;0.40;;;6.20;72.30;;;;;;5015894;28;20640;-75
2021/04/06 09:32:20;;;;;;;1.43;0.90;;;6.10;72.60;;;;;;5033098;28;20037;-76
2021/04/06 09:34:49;;;;;;;2.23;0.70;;;6.00;73.20;;;;;;5015787;28;20471;-75
2021/04/06 09:37:22;;;;;;;2.30;0.63;;;6.00;73.60;;;;;;5015678;28;20475;-76
2021/04/06 09:39:50;;;;;;;1.00;0.50;;;5.90;73.70;;;;;;5015752;28;20029;-78
2021/04/06 09:42:17;;;;;;;1.17;0.50;;;5.90;73.60;;;;;;5015652;28;20103;-75
2021/04/06 09:44:44;;;;;;;1.93;0.63;;;5.90;73.60;;;;;;5027770;28;20025;-75
2021/04/06 09:47:14;;;;;;;0.87;0.53;;;6.00;73.00;;;;;;5034992;28;20048;-73
2021/04/06 09:50:01;;;;;;;0.80;0.30;;;6.00;72.60;;;;;;5034972;28;20117;-74
2021/04/06 09:52:28;;;;;;;4.07;0.43;;;6.00;72.70;;;;;;5034513;28;20050;-72
2021/04/06 09:55:09;;;;;;;0.50;0.30;;;5.90;72.60;;;;;;5035479;28;20025;-71
2021/04/06 09:57:37;;;;;;;0.43;0.30;;;5.90;72.50;;;;;;5035229;28;20030;-72
2021/04/06 10:00:10;;;;;;;1.93;0.50;;;5.80;73.00;;;;;;5034809;28;20017;-76
2021/04/06 10:02:36;;;;;;;0.70;0.40;;;5.80;72.90;;;;;;5034247;28;20411;-74
2021/04/06 10:05:03;;;;;;;1.77;0.60;;;5.80;72.40;;;;;;5034980;28;20029;-75
2021/04/06 10:07:33;;;;;;;0.83;0.43;;;5.80;72.50;;;;;;5034989;28;20075;-72
2021/04/06 10:09:59;;;;;;;1.07;0.40;;;5.80;72.40;;;;;;5034762;28;20021;-75
2021/04/06 10:12:27;;;;;;;1.10;0.50;;;5.70;73.50;;;;;;5030505;28;20037;-75
2021/04/06 10:14:53;;;;;;;1.60;0.37;;;5.70;71.80;;;;;;5032927;28;20105;-74
2021/04/06 10:17:22;;;;;;;0.70;0.43;;;5.70;71.50;;;;;;5030522;28;20457;-73
2021/04/06 10:20:00;;;;;;;0.30;0.27;;;5.70;72.10;;;;;;5034064;28;20026;-74
2021/04/06 10:22:37;;;;;;;0.67;0.40;;;5.70;72.00;;;;;;5030638;28;20052;-72
2021/04/06 10:25:06;;;;;;;0.53;0.40;;;5.70;72.20;;;;;;5023579;28;20080;-71
2021/04/06 10:27:43;;;;;;;1.10;0.33;;;5.60;73.40;;;;;;5026845;28;20505;-73
2021/04/06 10:30:12;;;;;;;0.90;0.47;;;5.70;73.50;;;;;;5033858;28;20037;-75
2021/04/06 10:32:43;;;;;;;2.83;0.47;;;5.70;72.90;;;;;;5034079;28;20088;-73
2021/04/06 10:35:25;;;;;;;1.50;0.40;;;5.70;73.10;;;;;;5030478;28;20026;-74
2021/04/06 10:37:55;;;;;;;0.98;0.68;;;5.70;71.80;;;;;;5023055;28;20109;-74
2021/04/06 10:40:38;;;;;;;0.80;0.40;;;5.70;71.40;;;;;;5027781;28;20079;-72
2021/04/06 10:43:14;;;;;;;1.43;0.77;;;5.70;71.50;;;;;;5034261;28;20108;-74
2021/04/06 10:45:49;;;;;;;1.20;0.60;;;5.70;71.50;;;;;;5016344;28;20052;-73
2021/04/06 10:48:24;;;;;;;1.90;0.73;;;5.80;69.60;;;;;;5033907;28;20025;-75
2021/04/06 10:50:52;;;;;;;2.00;0.57;;;5.80;69.40;;;;;;5033556;28;20132;-75
2021/04/06 10:53:22;;;;;;;2.17;0.60;;;5.90;68.90;;;;;;5034036;28;20045;-76
2021/04/06 10:56:06;;;;;;;0.97;0.50;;;5.80;68.90;;;;;;5033984;28;20029;-73
2021/04/06 10:59:03;;;;;;;1.53;0.70;;;5.80;69.00;;;;;;5016199;28;20025;-76
2021/04/06 11:01:37;;;;;;;1.63;0.40;;;5.80;69.10;;;;;;5033934;28;20021;-76
2021/04/06 11:04:09;;;;;;;1.80;0.80;;;5.90;67.80;;;;;;5033625;28;20490;-75
2021/04/06 11:06:36;;;;;;;0.67;0.40;;;6.00;67.60;;;;;;5033775;28;20466;-76
2021/04/06 11:09:19;;;;;;;1.03;0.27;;;6.00;66.20;;;;;;5034063;28;20048;-74
2021/04/06 11:11:47;;;;;;;0.95;0.35;;;6.00;66.10;;;;;;5033879;28;20648;-74
2021/04/06 11:14:16;;;;;;;1.93;0.50;;;6.00;65.50;;;;;;5034153;28;20468;-72
2021/04/06 11:16:43;;;;;;;0.73;0.43;;;6.00;66.20;;;;;;5033430;28;20025;-72
2021/04/06 11:19:15;;;;;;;0.73;0.40;;;5.90;67.30;;;;;;5033598;28;20029;-72
2021/04/06 11:21:47;;;;;;;4.73;0.73;;;6.00;65.70;;;;;;5033391;28;20074;-72
2021/04/06 11:24:14;;;;;;;2.30;0.40;;;6.00;65.30;;;;;;5033535;28;20059;-72
2021/04/06 11:26:41;;;;;;;0.60;0.43;;;6.00;63.50;;;;;;5033157;28;20021;-72
2021/04/06 11:29:09;;;;;;;2.63;0.50;;;6.10;64.70;;;;;;5033200;28;20069;-72
2021/04/06 11:31:36;;;;;;;1.07;0.30;;;6.10;63.10;;;;;;5033180;28;20030;-72
2021/04/06 11:34:03;;;;;;;0.40;0.30;;;6.20;61.60;;;;;;5033397;28;20029;-72
2021/04/06 11:36:29;;;;;;;0.60;0.20;;;6.20;60.90;;;;;;5033350;28;20105;-73
2021/04/06 11:38:55;;;;;;;1.20;0.53;;;6.10;60.50;;;;;;5033156;28;20026;-75
2021/04/06 11:41:21;;;;;;;0.80;0.30;;;6.10;60.60;;;;;;5033384;28;20401;-72
2021/04/06 11:43:47;;;;;;;1.73;0.40;;;6.10;59.80;;;;;;5033097;28;20105;-71
2021/04/06 11:46:14;;;;;;;3.43;0.40;;;6.10;59.40;;;;;;5033372;28;20544;-71
2021/04/06 11:48:41;;;;;;;0.90;0.40;;;6.10;58.60;;;;;;5033013;28;20104;-70
2021/04/06 11:51:07;;;;;;;1.33;0.43;;;6.10;60.10;;;;;;5032954;28;20180;-71
2021/04/06 11:53:33;;;;;;;1.23;0.50;;;6.10;58.80;;;;;;5032962;28;20040;-74
2021/04/06 11:55:58;;;;;;;1.23;0.50;;;6.10;58.90;;;;;;5030385;28;20021;-73
2021/04/06 11:58:24;;;;;;;1.07;0.47;;;6.10;57.80;;;;;;5033015;28;20355;-74
2021/04/06 12:00:50;;;;;;;0.63;0.40;;;6.20;57.80;;;;;;5032533;28;20434;-67
2021/04/06 12:03:16;;;;;;;3.30;0.70;;;6.10;57.50;;;;;;5032751;28;20025;-69
2021/04/06 12:05:43;;;;;;;0.93;0.43;;;6.20;59.30;;;;;;5031631;28;20530;-69
2021/04/06 12:08:09;;;;;;;2.40;0.57;;;6.20;58.50;;;;;;5032891;28;20064;-69
2021/04/06 12:10:35;;;;;;;0.60;0.40;;;6.20;59.20;;;;;;5028816;28;20071;-68
2021/04/06 12:13:01;;;;;;;0.87;0.50;;;6.20;59.90;;;;;;5026309;28;20292;-71
2021/04/06 12:15:27;;;;;;;2.83;0.40;;;6.20;59.10;;;;;;5032845;28;20021;-69
2021/04/06 12:17:52;;;;;;;1.20;0.63;;;6.30;58.60;;;;;;5032724;28;20504;-67
2021/04/06 12:20:19;;;;;;;1.13;0.70;;;6.30;56.40;;;;;;5031779;28;20029;-68
2021/04/06 12:22:44;;;;;;;2.33;0.60;;;6.30;56.90;;;;;;5022728;28;20045;-68
2021/04/06 12:25:11;;;;;;;3.87;0.40;;;6.40;55.50;;;;;;5034264;28;20053;-69
2021/04/06 12:27:37;;;;;;;0.97;0.30;;;6.40;55.20;;;;;;5036585;28;20382;-69
2021/04/06 12:30:04;;;;;;;1.90;0.50;;;6.30;54.50;;;;;;5036334;28;20024;-68
2021/04/06 12:32:30;;;;;;;0.97;0.43;;;6.40;56.60;;;;;;5035643;28;20095;-68
2021/04/06 12:34:56;;;;;;;2.00;0.73;;;6.30;55.60;;;;;;5035202;28;20497;-71
2021/04/06 12:37:21;;;;;;;0.77;0.40;;;6.40;55.20;;;;;;5034597;28;20087;-69
2021/04/06 12:39:48;;;;;;;1.00;0.30;;;6.40;54.80;;;;;;5035352;28;20038;-68
2021/04/06 12:42:15;;;;;;;1.17;0.27;;;6.40;53.70;;;;;;5034402;28;20024;-68
2021/04/06 12:44:41;;;;;;;2.93;0.50;;;;;;;;;;5033412;28;20029;-68
2021/04/06 12:47:07;;;;;;;1.10;0.50;;;6.40;52.10;;;;;;5032662;28;20048;-68
2021/04/06 12:49:33;;;;;;;1.63;0.70;;;6.40;51.80;;;;;;5028463;28;20045;-68
2021/04/06 12:51:58;;;;;;;2.27;0.60;;;6.40;52.00;;;;;;5028772;28;20120;-68
2021/04/06 12:54:24;;;;;;;1.53;0.70;;;6.40;51.50;;;;;;5028060;28;20034;-68
2021/04/06 12:56:51;;;;;;;1.23;0.40;;;6.30;53.10;;;;;;5033509;28;20021;-68
2021/04/06 12:59:17;;;;;;;0.90;0.50;;;6.40;53.60;;;;;;5031979;28;20059;-68
2021/04/06 13:01:43;;;;;;;1.03;0.37;;;6.40;52.40;;;;;;5034985;28;20025;-68
2021/04/06 13:04:09;;;;;;;0.40;0.30;;;6.50;50.90;;;;;;5034699;28;20562;-68
2021/04/06 13:06:38;;;;;;;2.73;0.70;;;6.50;50.00;;;;;;5031263;28;20470;-68